createdAt,value
2022-09-15T00:00:57.578Z,21.21
2022-09-15T00:02:58.907Z,21.25
2022-09-15T00:05:00.860Z,21.28
2022-09-15T00:07:02.144Z,21.16
2022-09-15T00:09:03.456Z,21.02
2022-09-15T00:11:06.011Z,20.89
2022-09-15T00:13:07.263Z,20.95
2022-09-15T00:15:08.529Z,20.99
2022-09-15T00:17:09.937Z,21.00
2022-09-15T00:19:11.270Z,21.00
2022-09-15T00:21:12.564Z,20.99
2022-09-15T00:23:13.883Z,20.98
2022-09-15T00:25:15.207Z,20.98
2022-09-15T00:27:16.536Z,20.97
2022-09-15T00:29:17.799Z,20.99
2022-09-15T00:31:19.165Z,20.99
2022-09-15T00:33:20.500Z,21.00
2022-09-15T00:35:21.782Z,21.00
2022-09-15T00:37:23.075Z,21.00
2022-09-15T00:39:24.385Z,20.98
2022-09-15T00:41:25.658Z,20.98
2022-09-15T00:43:26.955Z,20.98
2022-09-15T00:45:28.264Z,20.96
2022-09-15T00:47:29.595Z,20.97
2022-09-15T00:49:30.880Z,20.96
2022-09-15T00:51:32.217Z,20.98
2022-09-15T00:53:33.526Z,21.00
2022-09-15T00:55:34.976Z,20.98
2022-09-15T00:57:36.343Z,20.98
2022-09-15T00:59:37.618Z,20.97
2022-09-15T01:01:38.964Z,20.97
2022-09-15T01:03:40.306Z,20.95
2022-09-15T01:05:41.621Z,20.99
2022-09-15T01:07:43.117Z,21.05
2022-09-15T01:09:44.492Z,21.09
2022-09-15T01:11:45.782Z,21.07
2022-09-15T01:13:47.063Z,21.11
2022-09-15T01:15:48.382Z,21.13
2022-09-15T01:17:49.658Z,21.14
2022-09-15T01:19:51.485Z,21.14
2022-09-15T01:21:56.834Z,21.13
2022-09-15T01:23:59.990Z,21.14
2022-09-15T01:26:01.704Z,21.14
2022-09-15T01:28:02.988Z,21.10
2022-09-15T01:30:04.308Z,21.05
2022-09-15T01:32:24.190Z,21.05
2022-09-15T01:34:25.474Z,21.10
2022-09-15T01:36:26.750Z,21.13
2022-09-15T01:38:28.379Z,21.15
2022-09-15T01:40:29.726Z,21.15
2022-09-15T01:42:31.062Z,21.14
2022-09-15T01:44:32.393Z,21.13
2022-09-15T01:46:33.666Z,21.12
2022-09-15T01:48:34.961Z,21.16
2022-09-15T01:50:37.122Z,21.14
2022-09-15T01:52:38.418Z,21.14
2022-09-15T01:54:39.687Z,21.14
2022-09-15T01:56:42.415Z,21.11
2022-09-15T01:58:43.824Z,21.09
2022-09-15T02:00:45.136Z,21.07
2022-09-15T02:02:46.490Z,21.04
2022-09-15T02:04:47.781Z,21.04
2022-09-15T02:06:49.630Z,21.02
2022-09-15T02:08:52.440Z,21.05
2022-09-15T02:10:53.830Z,21.12
2022-09-15T02:12:55.172Z,21.13
2022-09-15T02:14:56.538Z,21.13
2022-09-15T02:16:57.801Z,21.12
2022-09-15T02:18:59.129Z,21.11
2022-09-15T02:21:00.810Z,21.08
2022-09-15T02:23:02.290Z,21.06
2022-09-15T02:25:03.618Z,21.05
2022-09-15T02:27:04.962Z,21.03
2022-09-15T02:29:06.235Z,21.02
2022-09-15T02:31:07.595Z,20.99
2022-09-15T02:33:08.874Z,20.98
2022-09-15T02:35:10.161Z,21.02
2022-09-15T02:37:11.571Z,21.02
2022-09-15T02:39:13.102Z,21.00
2022-09-15T02:41:14.656Z,20.98
2022-09-15T02:43:15.946Z,20.95
2022-09-15T02:45:17.287Z,20.94
2022-09-15T02:47:18.658Z,20.93
2022-09-15T02:49:20.191Z,20.93
2022-09-15T02:51:21.847Z,20.92
2022-09-15T02:53:23.134Z,20.92
2022-09-15T02:55:29.001Z,20.90
2022-09-15T02:57:30.381Z,20.91
2022-09-15T02:59:51.663Z,20.92
2022-09-15T03:01:53.469Z,20.94
2022-09-15T03:03:54.746Z,20.99
2022-09-15T03:06:16.017Z,20.97
2022-09-15T03:08:17.319Z,20.95
2022-09-15T03:10:18.616Z,20.94
2022-09-15T03:12:19.939Z,20.94
2022-09-15T03:14:21.219Z,19.89
2022-09-15T03:16:22.604Z,20.93
2022-09-15T03:18:23.975Z,20.93
2022-09-15T03:20:26.108Z,20.93
2022-09-15T03:22:27.378Z,20.95
2022-09-15T03:24:28.655Z,20.94
2022-09-15T03:26:29.950Z,20.92
2022-09-15T03:28:31.228Z,20.92
2022-09-15T03:30:32.484Z,20.91
2022-09-15T03:32:33.751Z,20.91
2022-09-15T03:34:35.084Z,20.90
2022-09-15T03:36:36.394Z,20.92
2022-09-15T03:38:37.850Z,20.92
2022-09-15T03:40:39.120Z,20.91
2022-09-15T03:42:41.346Z,20.90
2022-09-15T03:44:42.666Z,20.89
2022-09-15T03:46:44.357Z,20.89
2022-09-15T03:48:45.666Z,20.87
2022-09-15T03:50:46.996Z,20.86
2022-09-15T03:52:48.571Z,20.85
2022-09-15T03:54:49.940Z,20.86
2022-09-15T03:56:51.995Z,20.86
2022-09-15T03:58:53.362Z,20.85
2022-09-15T04:00:55.515Z,20.84
2022-09-15T04:02:56.807Z,20.84
2022-09-15T04:04:58.111Z,20.84
2022-09-15T04:06:59.396Z,20.83
2022-09-15T04:09:00.689Z,20.82
2022-09-15T04:11:02.526Z,20.84
2022-09-15T04:13:03.782Z,20.89
2022-09-15T04:15:05.100Z,20.92
2022-09-15T04:17:06.395Z,20.94
2022-09-15T04:19:07.745Z,20.91
2022-09-15T04:21:09.024Z,20.94
2022-09-15T04:23:10.504Z,20.94
2022-09-15T04:25:12.111Z,20.94
2022-09-15T04:27:13.395Z,20.90
2022-09-15T04:29:15.291Z,20.91
2022-09-15T04:31:16.628Z,20.94
2022-09-15T04:33:17.966Z,20.88
2022-09-15T04:35:22.032Z,20.85
2022-09-15T04:37:23.353Z,20.83
2022-09-15T04:39:25.487Z,20.81
2022-09-15T04:41:26.813Z,20.79
2022-09-15T04:43:28.080Z,20.77
2022-09-15T04:45:29.562Z,20.76
2022-09-15T04:47:30.968Z,20.78
2022-09-15T04:49:32.251Z,20.82
2022-09-15T04:51:33.502Z,20.84
2022-09-15T04:53:35.711Z,20.83
2022-09-15T04:55:37.068Z,20.82
2022-09-15T04:57:38.342Z,20.82
2022-09-15T04:59:39.614Z,20.82
2022-09-15T05:01:40.980Z,20.81
2022-09-15T05:03:42.337Z,20.80
2022-09-15T05:05:43.662Z,20.80
2022-09-15T05:07:44.950Z,20.80
2022-09-15T05:09:46.219Z,20.80
2022-09-15T05:11:47.555Z,20.81
2022-09-15T05:13:48.849Z,20.84
2022-09-15T05:15:50.185Z,20.83
2022-09-15T05:17:51.671Z,20.83
2022-09-15T05:19:52.950Z,20.82
2022-09-15T05:21:54.234Z,20.81
2022-09-15T05:23:55.546Z,20.81
2022-09-15T05:25:56.821Z,20.80
2022-09-15T05:27:58.095Z,20.81
2022-09-15T05:30:23.455Z,20.80
2022-09-15T05:32:20.631Z,20.82
2022-09-15T05:34:21.902Z,20.85
2022-09-15T05:36:25.006Z,20.85
2022-09-15T05:38:26.335Z,20.86
2022-09-15T05:40:27.682Z,20.90
2022-09-15T05:42:28.983Z,20.98
2022-09-15T05:44:31.567Z,20.99
2022-09-15T05:46:32.902Z,20.98
2022-09-15T05:48:34.252Z,20.98
2022-09-15T05:50:35.572Z,20.92
2022-09-15T05:52:38.146Z,20.88
2022-09-15T05:54:39.592Z,20.87
2022-09-15T05:56:40.910Z,20.90
2022-09-15T05:58:42.215Z,20.91
2022-09-15T06:00:43.518Z,20.91
2022-09-15T06:02:44.869Z,20.94
2022-09-15T06:04:46.163Z,20.98
2022-09-15T06:06:47.435Z,20.97
2022-09-15T06:08:56.913Z,20.93
2022-09-15T06:10:59.203Z,20.88
2022-09-15T06:13:00.514Z,20.85
2022-09-15T06:15:02.387Z,20.83
2022-09-15T06:17:03.663Z,20.83
2022-09-15T06:19:05.339Z,20.82
2022-09-15T06:21:06.662Z,20.84
2022-09-15T06:23:07.934Z,20.87
2022-09-15T06:25:09.245Z,21.02
2022-09-15T06:27:10.687Z,21.04
2022-09-15T06:29:11.980Z,21.09
2022-09-15T06:31:13.309Z,21.00
2022-09-15T06:33:14.762Z,20.87
2022-09-15T06:35:16.073Z,20.78
2022-09-15T06:37:17.394Z,20.71
2022-09-15T06:39:19.252Z,20.67
2022-09-15T06:41:20.583Z,20.65
2022-09-15T06:43:22.040Z,20.62
2022-09-15T06:45:23.343Z,20.61
2022-09-15T06:47:24.671Z,20.63
2022-09-15T06:49:26.051Z,20.61
2022-09-15T06:51:31.334Z,20.58
2022-09-15T06:53:32.634Z,20.58
2022-09-15T06:55:33.978Z,20.58
2022-09-15T06:57:36.130Z,20.56
2022-09-15T06:59:37.410Z,20.57
2022-09-15T07:01:38.682Z,20.56
2022-09-15T07:03:40.138Z,20.57
2022-09-15T07:05:41.516Z,20.60
2022-09-15T07:07:42.858Z,20.59
2022-09-15T07:09:48.366Z,20.60
2022-09-15T07:11:50.713Z,20.58
2022-09-15T07:13:52.191Z,20.57
2022-09-15T07:15:53.590Z,20.57
2022-09-15T07:17:54.995Z,20.57
2022-09-15T07:19:56.668Z,20.57
2022-09-15T07:21:57.955Z,20.55
2022-09-15T07:24:01.587Z,20.53
2022-09-15T07:26:06.654Z,20.54
2022-09-15T07:28:07.930Z,20.49
2022-09-15T07:30:09.211Z,20.49
2022-09-15T07:32:10.540Z,20.49
2022-09-15T07:34:12.299Z,20.46
2022-09-15T07:36:13.570Z,20.45
2022-09-15T07:38:14.890Z,20.47
2022-09-15T07:40:16.691Z,20.46
2022-09-15T07:42:18.061Z,20.47
2022-09-15T07:44:19.358Z,20.48
2022-09-15T07:46:20.627Z,20.48
2022-09-15T07:48:26.251Z,20.47
2022-09-15T07:50:27.795Z,20.47
2022-09-15T07:52:29.370Z,20.47
2022-09-15T07:54:30.693Z,20.49
2022-09-15T07:56:31.960Z,20.49
2022-09-15T07:58:33.393Z,20.49
2022-09-15T08:00:35.860Z,20.45
2022-09-15T08:02:37.162Z,20.43
2022-09-15T08:04:38.439Z,20.42
2022-09-15T08:06:39.703Z,20.23
2022-09-15T08:08:41.031Z,19.81
2022-09-15T08:10:42.607Z,19.69
2022-09-15T08:12:43.922Z,19.61
2022-09-15T08:14:45.231Z,19.54
2022-09-15T08:16:46.615Z,19.56
2022-09-15T08:18:47.886Z,19.45
2022-09-15T08:20:49.210Z,19.68
2022-09-15T08:22:50.490Z,20.47
2022-09-15T08:24:52.040Z,21.04
2022-09-15T08:26:53.354Z,21.14
2022-09-15T08:28:54.632Z,21.48
2022-09-15T08:30:55.962Z,21.53
2022-09-15T08:32:57.281Z,21.46
2022-09-15T08:34:58.559Z,21.38
2022-09-15T08:36:59.856Z,21.43
2022-09-15T08:39:01.171Z,21.46
2022-09-15T08:41:02.462Z,21.81
2022-09-15T08:43:03.740Z,21.90
2022-09-15T08:45:05.018Z,21.75
2022-09-15T08:47:06.294Z,21.58
2022-09-15T08:49:07.586Z,21.51
2022-09-15T08:51:08.883Z,21.57
2022-09-15T08:53:10.955Z,21.61
2022-09-15T08:55:12.263Z,21.68
2022-09-15T08:57:13.527Z,21.67
2022-09-15T08:59:15.294Z,21.89
2022-09-15T09:01:16.666Z,22.01
2022-09-15T09:03:18.003Z,21.84
2022-09-15T09:05:19.296Z,21.40
2022-09-15T09:07:20.626Z,21.17
2022-09-15T09:09:21.883Z,21.06
2022-09-15T09:11:23.186Z,21.05
2022-09-15T09:13:24.463Z,20.98
2022-09-15T09:15:25.829Z,20.93
2022-09-15T09:17:27.141Z,20.86
2022-09-15T09:19:32.043Z,20.79
2022-09-15T09:21:33.712Z,20.73
2022-09-15T09:23:34.991Z,20.68
2022-09-15T09:25:36.760Z,20.63
2022-09-15T09:27:39.305Z,20.59
2022-09-15T09:29:40.662Z,20.56
2022-09-15T09:31:42.015Z,20.53
2022-09-15T09:33:47.615Z,20.50
2022-09-15T09:35:49.695Z,20.49
2022-09-15T09:37:51.015Z,20.47
2022-09-15T09:39:52.379Z,20.46
2022-09-15T09:41:54.120Z,20.44
2022-09-15T09:43:55.451Z,20.43
2022-09-15T09:45:56.940Z,20.42
2022-09-15T09:48:01.454Z,20.41
2022-09-15T09:50:03.179Z,20.42
2022-09-15T09:52:04.754Z,20.39
2022-09-15T09:54:06.372Z,20.38
2022-09-15T09:56:07.683Z,20.36
2022-09-15T09:58:08.954Z,20.35
2022-09-15T10:00:10.243Z,20.36
2022-09-15T10:02:11.602Z,20.34
2022-09-15T10:04:13.308Z,20.33
2022-09-15T10:06:14.619Z,20.34
2022-09-15T10:08:16.318Z,20.35
2022-09-15T10:10:17.595Z,20.34
2022-09-15T10:12:18.906Z,20.35
2022-09-15T10:14:20.214Z,20.34
2022-09-15T10:16:22.430Z,20.35
2022-09-15T10:18:23.783Z,20.35
2022-09-15T10:20:25.779Z,20.36
2022-09-15T10:22:27.271Z,20.33
2022-09-15T10:24:28.546Z,20.35
2022-09-15T10:26:31.948Z,20.33
2022-09-15T10:28:33.227Z,20.33
2022-09-15T10:30:34.504Z,20.36
2022-09-15T10:32:35.798Z,20.64
2022-09-15T10:34:37.071Z,20.82
2022-09-15T10:36:38.358Z,20.92
2022-09-15T10:38:39.650Z,20.95
2022-09-15T10:40:40.947Z,20.98
2022-09-15T10:42:42.235Z,21.01
2022-09-15T10:44:43.527Z,21.05
2022-09-15T10:46:44.856Z,21.07
2022-09-15T10:48:46.187Z,21.08
2022-09-15T10:50:47.600Z,21.11
2022-09-15T10:52:48.931Z,20.65
2022-09-15T10:54:50.266Z,21.20
2022-09-15T10:56:51.588Z,21.21
2022-09-15T10:58:52.996Z,21.21
2022-09-15T11:00:54.406Z,21.22
2022-09-15T11:02:55.707Z,20.98
2022-09-15T11:04:56.985Z,20.81
2022-09-15T11:06:58.296Z,20.69
2022-09-15T11:08:59.699Z,20.61
2022-09-15T11:11:00.984Z,20.56
2022-09-15T11:13:02.310Z,20.51
2022-09-15T11:15:05.335Z,20.46
2022-09-15T11:17:06.654Z,20.43
2022-09-15T11:19:08.086Z,20.40
2022-09-15T11:21:09.367Z,20.35
2022-09-15T11:23:11.291Z,20.31
2022-09-15T11:25:12.607Z,20.29
2022-09-15T11:27:13.930Z,20.28
2022-09-15T11:29:15.222Z,20.26
2022-09-15T11:31:16.602Z,20.24
2022-09-15T11:33:18.119Z,20.23
2022-09-15T11:35:19.607Z,20.22
2022-09-15T11:37:20.892Z,20.20
2022-09-15T11:39:22.187Z,20.20
2022-09-15T11:41:23.542Z,20.18
2022-09-15T11:43:24.811Z,20.17
2022-09-15T11:45:26.070Z,20.17
2022-09-15T11:47:27.412Z,20.16
2022-09-15T11:49:28.739Z,20.16
2022-09-15T11:51:30.996Z,20.17
2022-09-15T11:53:32.287Z,20.16
2022-09-15T11:55:33.558Z,20.16
2022-09-15T11:57:34.847Z,20.15
2022-09-15T11:59:36.131Z,20.15
2022-09-15T12:01:37.583Z,20.15
2022-09-15T12:03:38.918Z,20.15
2022-09-15T12:05:40.246Z,20.16
2022-09-15T12:07:41.516Z,20.17
2022-09-15T12:09:42.840Z,20.25
2022-09-15T12:11:44.219Z,20.51
2022-09-15T12:13:45.739Z,20.74
2022-09-15T12:15:47.135Z,20.92
2022-09-15T12:17:48.739Z,21.08
2022-09-15T12:19:50.807Z,19.47
2022-09-15T12:21:53.168Z,20.67
2022-09-15T12:23:54.503Z,20.57
2022-09-15T12:25:55.778Z,20.49
2022-09-15T12:27:57.069Z,20.51
2022-09-15T12:29:58.334Z,20.55
2022-09-15T12:31:59.598Z,20.58
2022-09-15T12:34:00.938Z,20.58
2022-09-15T12:36:02.291Z,20.57
2022-09-15T12:38:03.578Z,20.55
2022-09-15T12:40:06.228Z,20.54
2022-09-15T12:42:08.565Z,20.60
2022-09-15T12:44:09.864Z,20.59
2022-09-15T12:46:11.177Z,20.57
2022-09-15T12:48:12.491Z,20.58
2022-09-15T12:50:13.754Z,20.55
2022-09-15T12:52:15.042Z,20.52
2022-09-15T12:54:16.332Z,20.46
2022-09-15T12:56:17.648Z,20.43
2022-09-15T12:58:18.935Z,20.41
2022-09-15T13:00:20.238Z,20.38
2022-09-15T13:02:21.595Z,20.35
2022-09-15T13:04:23.191Z,20.36
2022-09-15T13:06:24.451Z,20.38
2022-09-15T13:08:25.763Z,20.42
2022-09-15T13:10:27.769Z,20.41
2022-09-15T13:12:29.049Z,20.37
2022-09-15T13:14:30.332Z,20.62
2022-09-15T13:16:31.627Z,20.91
2022-09-15T13:18:32.948Z,21.12
2022-09-15T13:20:34.238Z,21.21
2022-09-15T13:22:35.542Z,21.28
2022-09-15T13:24:37.482Z,21.27
2022-09-15T13:26:38.765Z,21.32
2022-09-15T13:28:40.033Z,21.34
2022-09-15T13:30:41.418Z,21.40
2022-09-15T13:32:43.564Z,21.42
2022-09-15T13:35:06.408Z,21.53
2022-09-15T13:39:27.530Z,21.62
2022-09-15T13:41:28.833Z,21.46
2022-09-15T13:43:30.108Z,21.20
2022-09-15T13:45:31.376Z,21.05
2022-09-15T13:47:33.542Z,20.93
2022-09-15T13:49:35.691Z,20.87
2022-09-15T13:51:36.999Z,20.85
2022-09-15T13:53:42.609Z,20.80
2022-09-15T13:55:44.115Z,20.75
2022-09-15T14:00:13.045Z,20.68
2022-09-15T14:02:17.696Z,20.66
2022-09-15T14:04:19.282Z,20.65
2022-09-15T14:06:20.629Z,20.65
2022-09-15T14:08:21.916Z,20.63
2022-09-15T14:10:23.245Z,20.62
2022-09-15T14:12:24.524Z,20.61
2022-09-15T14:14:25.832Z,20.60
2022-09-15T14:16:27.847Z,20.58
2022-09-15T14:18:29.250Z,20.57
2022-09-15T14:20:33.554Z,20.56
2022-09-15T14:22:34.845Z,20.56
2022-09-15T14:24:37.606Z,20.60
2022-09-15T14:26:38.996Z,20.63
2022-09-15T14:28:40.298Z,20.68
2022-09-15T14:30:41.566Z,21.41
2022-09-15T14:32:43.023Z,21.61
2022-09-15T14:34:44.383Z,21.76
2022-09-15T14:36:45.743Z,21.85
2022-09-15T14:38:47.039Z,21.75
2022-09-15T14:40:48.324Z,21.64
2022-09-15T14:42:50.052Z,21.65
2022-09-15T14:47:12.782Z,21.87
2022-09-15T14:49:14.058Z,21.98
2022-09-15T14:51:15.828Z,21.83
2022-09-15T14:53:17.123Z,21.75
2022-09-15T14:55:18.977Z,21.73
2022-09-15T14:57:20.274Z,21.71
2022-09-15T14:59:21.626Z,21.72
2022-09-15T15:01:22.951Z,21.70
2022-09-15T15:03:24.283Z,21.75
2022-09-15T15:05:25.596Z,21.76
2022-09-15T15:07:26.987Z,21.78
2022-09-15T15:09:28.267Z,21.87
2022-09-15T15:11:29.547Z,21.74
2022-09-15T15:13:30.879Z,21.31
2022-09-15T15:15:32.215Z,21.14
2022-09-15T15:17:33.603Z,21.40
2022-09-15T15:19:34.887Z,21.88
2022-09-15T15:21:36.254Z,21.92
2022-09-15T15:23:37.818Z,21.91
2022-09-15T15:25:39.235Z,21.95
2022-09-15T15:27:40.603Z,22.05
2022-09-15T15:29:43.104Z,22.07
2022-09-15T15:31:44.505Z,22.10
2022-09-15T15:33:45.851Z,22.01
2022-09-15T15:35:47.146Z,21.97
2022-09-15T15:37:48.449Z,21.97
2022-09-15T15:39:49.824Z,21.98
2022-09-15T15:41:51.758Z,21.98
2022-09-15T15:43:53.214Z,22.02
2022-09-15T15:45:58.425Z,22.06
2022-09-15T15:47:59.863Z,22.07
2022-09-15T15:50:16.560Z,22.19
2022-09-15T15:52:18.123Z,22.21
2022-09-15T15:54:19.621Z,22.29
2022-09-15T15:56:20.895Z,22.26
2022-09-15T15:58:22.210Z,22.29
2022-09-15T16:00:24.611Z,22.29
2022-09-15T16:02:26.047Z,21.86
2022-09-15T16:04:27.444Z,21.57
2022-09-15T16:06:28.953Z,21.43
2022-09-15T16:08:30.239Z,21.35
2022-09-15T16:10:31.550Z,21.28
2022-09-15T16:12:34.814Z,21.55
2022-09-15T16:14:36.840Z,21.78
2022-09-15T16:16:38.372Z,21.87
2022-09-15T16:18:39.694Z,21.93
2022-09-15T16:20:41.004Z,21.99
2022-09-15T16:22:42.467Z,22.03
2022-09-15T16:24:43.752Z,22.05
2022-09-15T16:26:45.230Z,22.08
2022-09-15T16:28:46.518Z,22.45
2022-09-15T16:30:47.888Z,22.38
2022-09-15T16:32:49.231Z,22.33
2022-09-15T16:34:52.556Z,22.32
2022-09-15T16:36:53.879Z,22.28
2022-09-15T16:38:55.153Z,22.31
2022-09-15T16:40:56.644Z,22.29
2022-09-15T16:42:57.946Z,22.08
2022-09-15T16:44:59.419Z,21.73
2022-09-15T16:47:00.813Z,21.55
2022-09-15T16:49:02.210Z,21.44
2022-09-15T16:51:24.931Z,21.36
2022-09-15T16:53:26.633Z,21.31
2022-09-15T16:55:29.579Z,21.28
2022-09-15T16:57:30.903Z,21.27
2022-09-15T16:59:32.223Z,21.32
2022-09-15T17:01:33.583Z,21.24
2022-09-15T17:03:34.959Z,21.24
2022-09-15T17:05:36.282Z,21.32
2022-09-15T17:07:37.535Z,21.70
2022-09-15T17:09:38.868Z,21.93
2022-09-15T17:11:40.131Z,21.92
2022-09-15T17:13:41.407Z,21.91
2022-09-15T17:15:42.836Z,21.91
2022-09-15T17:17:44.198Z,21.90
2022-09-15T17:19:45.470Z,21.97
2022-09-15T17:21:46.802Z,21.93
2022-09-15T17:23:48.201Z,21.97
2022-09-15T17:25:52.082Z,21.96
2022-09-15T17:27:53.399Z,21.90
2022-09-15T17:29:54.682Z,21.98
2022-09-15T17:31:55.984Z,22.06
2022-09-15T17:33:57.564Z,22.08
2022-09-15T17:35:58.869Z,22.04
2022-09-15T17:38:00.370Z,22.01
2022-09-15T17:40:02.637Z,22.02
2022-09-15T17:42:03.992Z,22.03
2022-09-15T17:44:05.345Z,22.04
2022-09-15T17:46:07.847Z,22.07
2022-09-15T17:48:09.455Z,21.88
2022-09-15T17:50:10.990Z,21.59
2022-09-15T17:52:12.284Z,21.68
2022-09-15T17:54:13.703Z,21.72
2022-09-15T17:56:15.053Z,21.74
2022-09-15T17:58:16.451Z,21.75
2022-09-15T18:00:17.863Z,21.75
2022-09-15T18:02:19.247Z,21.75
2022-09-15T18:04:20.608Z,21.80
2022-09-15T18:06:21.899Z,21.87
2022-09-15T18:08:23.224Z,21.94
2022-09-15T18:10:25.206Z,22.24
2022-09-15T18:12:26.579Z,22.28
2022-09-15T18:14:27.859Z,22.13
2022-09-15T18:16:29.180Z,22.09
2022-09-15T18:18:30.695Z,22.05
2022-09-15T18:20:32.038Z,22.08
2022-09-15T18:22:33.359Z,21.98
2022-09-15T18:24:34.631Z,21.65
2022-09-15T18:26:35.927Z,21.46
2022-09-15T18:28:37.221Z,21.34
2022-09-15T18:30:40.704Z,21.63
2022-09-15T18:32:42.088Z,21.94
2022-09-15T18:34:43.363Z,21.87
2022-09-15T18:36:45.028Z,21.79
2022-09-15T18:38:46.323Z,21.90
2022-09-15T18:40:48.946Z,21.87
2022-09-15T18:42:50.290Z,21.85
2022-09-15T18:44:51.594Z,21.81
2022-09-15T18:46:53.001Z,21.81
2022-09-15T18:48:54.324Z,21.76
2022-09-15T18:50:55.713Z,21.81
2022-09-15T18:52:57.155Z,21.90
2022-09-15T18:54:59.594Z,21.91
2022-09-15T18:57:00.872Z,21.91
2022-09-15T18:59:02.259Z,21.91
2022-09-15T19:01:03.594Z,21.92
2022-09-15T19:03:05.491Z,21.92
2022-09-15T19:05:06.853Z,21.73
2022-09-15T19:07:08.165Z,21.48
2022-09-15T19:09:09.490Z,21.55
2022-09-15T19:11:10.968Z,21.62
2022-09-15T19:13:14.092Z,21.66
2022-09-15T19:15:15.643Z,21.70
2022-09-15T19:17:16.964Z,21.73
2022-09-15T19:19:18.277Z,21.75
2022-09-15T19:21:22.832Z,21.75
2022-09-15T19:23:26.535Z,21.79
2022-09-15T19:25:27.842Z,21.84
2022-09-15T19:27:29.167Z,21.89
2022-09-15T19:29:34.747Z,21.91
2022-09-15T19:31:41.126Z,21.88
2022-09-15T19:33:43.308Z,21.96
2022-09-15T19:35:44.623Z,21.93
2022-09-15T19:37:46.016Z,21.87
2022-09-15T19:39:47.443Z,21.91
2022-09-15T19:41:48.942Z,21.90
2022-09-15T19:43:50.521Z,21.89
2022-09-15T19:45:52.009Z,21.90
2022-09-15T19:47:53.374Z,21.90
2022-09-15T19:49:57.161Z,21.65
2022-09-15T19:51:58.461Z,21.55
2022-09-15T19:53:59.799Z,21.70
2022-09-15T19:56:01.095Z,21.75
2022-09-15T19:58:02.422Z,21.75
2022-09-15T20:00:03.728Z,21.78
2022-09-15T20:02:05.083Z,21.77
2022-09-15T20:04:06.602Z,21.76
2022-09-15T20:06:08.009Z,21.80
2022-09-15T20:08:09.293Z,21.87
2022-09-15T20:10:10.596Z,21.84
2022-09-15T20:12:11.953Z,21.85
2022-09-15T20:14:13.651Z,21.85
2022-09-15T20:16:15.316Z,21.91
2022-09-15T20:18:17.379Z,21.96
2022-09-15T20:20:18.654Z,21.94
2022-09-15T20:22:19.931Z,21.93
2022-09-15T20:24:21.260Z,21.95
2022-09-15T20:26:22.735Z,21.90
2022-09-15T20:28:24.012Z,21.95
2022-09-15T20:30:25.320Z,21.95
2022-09-15T20:32:29.228Z,21.94
2022-09-15T20:34:30.598Z,21.88
2022-09-15T20:36:33.347Z,21.68
2022-09-15T20:38:34.721Z,21.91
2022-09-15T20:40:36.004Z,21.92
2022-09-15T20:42:37.274Z,22.03
2022-09-15T20:44:38.614Z,22.05
2022-09-15T20:46:39.891Z,22.08
2022-09-15T20:48:41.182Z,22.08
2022-09-15T20:50:42.460Z,22.14
2022-09-15T20:52:44.515Z,22.17
2022-09-15T20:54:45.822Z,22.17
2022-09-15T20:56:47.134Z,22.20
2022-09-15T20:58:48.411Z,22.29
2022-09-15T21:00:49.945Z,22.36
2022-09-15T21:02:51.260Z,22.39
2022-09-15T21:04:52.694Z,22.36
2022-09-15T21:06:53.991Z,22.33
2022-09-15T21:08:56.124Z,22.35
2022-09-15T21:10:58.958Z,22.24
2022-09-15T21:13:00.290Z,22.21
2022-09-15T21:15:01.578Z,22.16
2022-09-15T21:17:02.903Z,22.13
2022-09-15T21:19:04.294Z,22.04
2022-09-15T21:21:05.557Z,22.09
2022-09-15T21:23:07.362Z,21.99
2022-09-15T21:25:08.646Z,22.03
2022-09-15T21:27:28.944Z,22.02
2022-09-15T21:29:31.259Z,22.40
2022-09-15T21:31:32.956Z,21.33
2022-09-15T21:33:34.274Z,19.86
2022-09-15T21:35:35.948Z,20.20
2022-09-15T21:37:37.267Z,20.95
2022-09-15T21:39:38.602Z,21.14
2022-09-15T21:41:39.935Z,21.17
2022-09-15T21:43:41.452Z,21.15
2022-09-15T21:45:43.832Z,21.14
2022-09-15T21:47:45.166Z,21.12
2022-09-15T21:49:46.473Z,21.11
2022-09-15T21:51:47.782Z,21.08
2022-09-15T21:53:49.380Z,21.05
2022-09-15T21:55:50.879Z,21.04
2022-09-15T21:57:52.224Z,21.01
2022-09-15T21:59:53.499Z,21.00
2022-09-15T22:01:54.814Z,20.99
2022-09-15T22:03:56.184Z,20.98
2022-09-15T22:05:57.461Z,20.97
2022-09-15T22:08:01.581Z,20.96
2022-09-15T22:10:06.029Z,20.95
2022-09-15T22:12:07.327Z,20.95
2022-09-15T22:14:08.846Z,20.08
2022-09-15T22:16:10.227Z,20.89
2022-09-15T22:18:11.611Z,20.89
2022-09-15T22:20:13.004Z,20.87
2022-09-15T22:22:14.274Z,20.86
2022-09-15T22:24:15.578Z,20.85
2022-09-15T22:26:16.916Z,20.85
2022-09-15T22:28:18.194Z,20.83
2022-09-15T22:30:19.484Z,20.82
2022-09-15T22:32:20.756Z,20.81
2022-09-15T22:34:22.074Z,20.79
2022-09-15T22:36:28.108Z,20.79
2022-09-15T22:38:30.372Z,20.77
2022-09-15T22:40:31.667Z,20.77
2022-09-15T22:42:32.985Z,20.76
2022-09-15T22:44:34.309Z,20.75
2022-09-15T22:46:35.793Z,20.74
2022-09-15T22:48:42.453Z,20.73
2022-09-15T22:50:45.412Z,20.69
2022-09-15T22:52:47.901Z,20.71
2022-09-15T22:54:49.228Z,20.71
2022-09-15T22:56:50.515Z,20.73
2022-09-15T22:58:51.889Z,20.73
2022-09-15T23:00:53.224Z,20.72
2022-09-15T23:02:54.684Z,20.77
2022-09-15T23:04:56.161Z,20.80
2022-09-15T23:06:57.430Z,20.80
2022-09-15T23:08:58.722Z,20.79
2022-09-15T23:11:00.459Z,20.80
2022-09-15T23:13:01.765Z,20.80
2022-09-15T23:15:04.580Z,20.78
2022-09-15T23:17:05.854Z,20.79
2022-09-15T23:19:07.165Z,20.79
2022-09-15T23:21:08.476Z,20.78
2022-09-15T23:23:10.561Z,20.77
2022-09-15T23:25:11.853Z,20.77
2022-09-15T23:27:13.168Z,20.76
2022-09-15T23:29:14.682Z,20.74
2022-09-15T23:31:15.977Z,20.73
2022-09-15T23:33:17.337Z,20.74
2022-09-15T23:35:18.608Z,20.72
2022-09-15T23:37:19.888Z,20.71
2022-09-15T23:39:21.232Z,20.70
2022-09-15T23:41:22.578Z,20.69
2022-09-15T23:43:23.857Z,20.69
2022-09-15T23:45:25.213Z,20.69
2022-09-15T23:47:26.481Z,20.67
2022-09-15T23:49:27.775Z,20.66
2022-09-15T23:51:29.080Z,20.66
2022-09-15T23:53:30.575Z,20.65
2022-09-15T23:55:31.867Z,20.66
2022-09-15T23:57:33.164Z,20.69
2022-09-15T23:59:34.427Z,20.70
